createdAt,value
2018-07-04T00:01:32.048Z,14.00
2018-07-04T00:04:08.895Z,12.23
2018-07-04T00:06:42.289Z,11.73
2018-07-04T00:09:15.431Z,13.00
2018-07-04T00:11:48.544Z,12.73
2018-07-04T00:14:23.330Z,12.00
2018-07-04T00:16:56.784Z,11.23
2018-07-04T00:19:30.184Z,11.63
2018-07-04T00:22:03.479Z,11.00
2018-07-04T00:24:37.304Z,11.50
2018-07-04T00:27:10.766Z,13.27
2018-07-04T00:29:43.944Z,12.80
2018-07-04T00:32:17.011Z,12.60
2018-07-04T00:34:53.904Z,13.40
2018-07-04T00:37:27.142Z,13.83
2018-07-04T00:40:00.805Z,13.87
2018-07-04T00:42:33.873Z,13.07
2018-07-04T00:45:08.819Z,12.53
2018-07-04T00:47:43.410Z,15.50
2018-07-04T00:50:18.480Z,13.63
2018-07-04T00:52:51.567Z,13.70
2018-07-04T00:55:26.395Z,13.17
2018-07-04T00:57:59.656Z,12.70
2018-07-04T01:00:32.948Z,14.43
2018-07-04T01:03:06.071Z,12.97
2018-07-04T01:05:40.333Z,14.83
2018-07-04T01:08:13.728Z,14.47
2018-07-04T01:10:47.809Z,13.23
2018-07-04T01:13:20.936Z,13.67
2018-07-04T01:15:54.262Z,14.73
2018-07-04T01:18:27.628Z,14.70
2018-07-04T01:21:06.304Z,13.57
2018-07-04T01:23:39.664Z,14.63
2018-07-04T01:26:12.999Z,15.43
2018-07-04T01:28:48.290Z,15.10
2018-07-04T01:31:22.440Z,13.80
2018-07-04T01:33:55.603Z,16.30
2018-07-04T01:36:28.894Z,13.73
2018-07-04T01:39:02.230Z,14.80
2018-07-04T01:41:35.448Z,16.50
2018-07-04T01:44:08.776Z,15.03
2018-07-04T01:46:42.173Z,14.87
2018-07-04T01:49:15.292Z,14.30
2018-07-04T01:51:48.719Z,14.57
2018-07-04T01:54:21.978Z,14.57
2018-07-04T01:57:17.249Z,15.63
2018-07-04T02:00:13.149Z,17.30
2018-07-04T02:02:46.974Z,15.23
2018-07-04T02:05:20.274Z,16.07
2018-07-04T02:07:53.522Z,14.73
2018-07-04T02:10:26.677Z,15.10
2018-07-04T02:12:59.850Z,14.07
2018-07-04T02:15:33.118Z,15.03
2018-07-04T02:18:06.322Z,15.07
2018-07-04T02:20:39.422Z,15.67
2018-07-04T02:23:12.600Z,13.87
2018-07-04T02:25:45.686Z,14.53
2018-07-04T02:28:18.990Z,14.07
2018-07-04T02:30:52.202Z,14.60
2018-07-04T02:33:25.384Z,14.40
2018-07-04T02:35:58.756Z,14.00
2018-07-04T02:38:31.974Z,14.47
2018-07-04T02:41:04.883Z,13.53
2018-07-04T02:43:38.027Z,13.47
2018-07-04T02:46:11.115Z,15.17
2018-07-04T02:48:44.169Z,14.17
2018-07-04T02:51:17.323Z,15.27
2018-07-04T02:53:50.401Z,15.93
2018-07-04T02:56:23.468Z,14.07
2018-07-04T02:58:56.521Z,13.60
2018-07-04T03:01:29.673Z,13.67
2018-07-04T03:04:02.759Z,14.30
2018-07-04T03:06:35.841Z,13.57
2018-07-04T03:09:08.950Z,14.10
2018-07-04T03:11:42.023Z,13.40
2018-07-04T03:14:15.102Z,19.10
2018-07-04T03:16:48.147Z,14.73
2018-07-04T03:19:21.189Z,14.73
2018-07-04T03:21:54.292Z,14.40
2018-07-04T03:24:27.296Z,13.87
2018-07-04T03:27:00.667Z,13.87
2018-07-04T03:29:33.871Z,13.43
2018-07-04T03:32:06.864Z,16.27
2018-07-04T03:34:39.947Z,13.83
2018-07-04T03:37:13.026Z,15.87
2018-07-04T03:39:46.118Z,14.53
2018-07-04T03:42:19.221Z,18.17
2018-07-04T03:44:52.294Z,14.83
2018-07-04T03:47:25.253Z,15.37
2018-07-04T03:49:58.487Z,14.57
2018-07-04T03:52:31.567Z,16.60
2018-07-04T03:55:04.551Z,13.77
2018-07-04T03:57:37.544Z,14.37
2018-07-04T04:00:10.635Z,15.30
2018-07-04T04:02:43.742Z,14.63
2018-07-04T04:05:16.816Z,14.53
2018-07-04T04:07:49.884Z,14.60
2018-07-04T04:10:22.958Z,14.43
2018-07-04T04:12:55.947Z,14.43
2018-07-04T04:15:29.168Z,14.20
2018-07-04T04:18:02.174Z,14.20
2018-07-04T04:20:35.189Z,15.50
2018-07-04T04:23:08.212Z,14.73
2018-07-04T04:25:41.161Z,14.00
2018-07-04T04:28:14.221Z,16.07
2018-07-04T04:30:47.394Z,14.47
2018-07-04T04:33:20.396Z,14.87
2018-07-04T04:35:53.465Z,15.83
2018-07-04T04:38:26.568Z,15.83
2018-07-04T04:40:59.678Z,16.70
2018-07-04T04:43:32.775Z,15.93
2018-07-04T04:46:05.876Z,17.23
2018-07-04T04:48:38.927Z,17.63
2018-07-04T04:51:11.941Z,16.30
2018-07-04T04:53:44.998Z,16.00
2018-07-04T04:56:18.103Z,17.60
2018-07-04T04:58:51.110Z,17.93
2018-07-04T05:01:24.211Z,17.30
2018-07-04T05:03:57.250Z,18.37
2018-07-04T05:06:30.251Z,18.53
2018-07-04T05:09:03.676Z,18.27
2018-07-04T05:11:36.660Z,17.00
2018-07-04T05:14:10.130Z,19.20
2018-07-04T05:16:43.335Z,18.17
2018-07-04T05:19:16.521Z,24.47
2018-07-04T05:21:49.621Z,21.60
2018-07-04T05:24:22.790Z,19.17
2018-07-04T05:26:55.897Z,15.30
2018-07-04T05:29:28.906Z,15.80
2018-07-04T05:32:01.977Z,16.50
2018-07-04T05:34:34.968Z,15.70
2018-07-04T05:37:08.049Z,16.83
2018-07-04T05:39:41.121Z,16.33
2018-07-04T05:42:14.013Z,15.73
2018-07-04T05:44:47.226Z,15.80
2018-07-04T05:47:20.430Z,17.33
2018-07-04T05:49:53.496Z,19.10
2018-07-04T05:52:26.586Z,17.43
2018-07-04T05:54:59.572Z,15.73
2018-07-04T05:57:32.879Z,17.00
2018-07-04T06:00:06.089Z,16.10
2018-07-04T06:02:39.330Z,20.20
2018-07-04T06:05:12.457Z,19.57
2018-07-04T06:07:45.777Z,16.97
2018-07-04T06:10:19.021Z,16.40
2018-07-04T06:12:52.334Z,16.00
2018-07-04T06:15:25.504Z,16.13
2018-07-04T06:17:58.598Z,15.90
2018-07-04T06:20:31.569Z,15.50
2018-07-04T06:23:05.007Z,14.77
2018-07-04T06:25:38.196Z,15.30
2018-07-04T06:28:11.172Z,15.93
2018-07-04T06:30:44.277Z,15.87
2018-07-04T06:33:17.576Z,16.30
2018-07-04T06:35:50.581Z,16.17
2018-07-04T06:38:17.586Z,16.47
2018-07-04T06:40:44.540Z,16.87
2018-07-04T06:43:11.570Z,15.17
2018-07-04T06:45:38.525Z,14.00
2018-07-04T06:48:05.455Z,14.97
2018-07-04T06:50:32.540Z,13.00
2018-07-04T06:52:59.565Z,17.43
2018-07-04T06:55:26.604Z,15.00
2018-07-04T06:57:53.593Z,14.73
2018-07-04T07:00:20.613Z,14.10
2018-07-04T07:02:47.595Z,15.10
2018-07-04T07:05:20.860Z,12.93
2018-07-04T07:07:54.039Z,15.17
2018-07-04T07:10:27.060Z,14.27
2018-07-04T07:13:00.105Z,15.37
2018-07-04T07:15:33.509Z,14.17
2018-07-04T07:18:06.533Z,14.00
2018-07-04T07:20:39.794Z,18.03
2018-07-04T07:23:12.976Z,14.73
2018-07-04T07:25:46.217Z,13.23
2018-07-04T07:28:19.379Z,12.77
2018-07-04T07:30:52.494Z,13.80
2018-07-04T07:33:25.668Z,15.63
2018-07-04T07:35:59.048Z,13.63
2018-07-04T07:38:32.217Z,14.53
2018-07-04T07:41:05.961Z,12.30
2018-07-04T07:43:39.236Z,11.80
2018-07-04T07:46:12.282Z,12.40
2018-07-04T07:48:45.410Z,13.20
2018-07-04T07:51:18.432Z,13.40
2018-07-04T07:53:51.717Z,13.03
2018-07-04T07:56:24.807Z,11.97
2018-07-04T07:58:57.916Z,11.53
2018-07-04T08:01:30.937Z,12.70
2018-07-04T08:04:03.999Z,12.87
2018-07-04T08:06:37.165Z,12.93
2018-07-04T08:09:10.353Z,13.10
2018-07-04T08:11:43.437Z,11.83
2018-07-04T08:14:16.536Z,13.03
2018-07-04T08:16:49.534Z,15.10
2018-07-04T08:19:22.580Z,11.67
2018-07-04T08:21:55.862Z,12.03
2018-07-04T08:24:29.584Z,10.73
2018-07-04T08:27:02.690Z,11.33
2018-07-04T08:29:35.770Z,12.90
2018-07-04T08:32:08.879Z,11.93
2018-07-04T08:34:42.043Z,12.30
2018-07-04T08:37:15.172Z,12.37
2018-07-04T08:39:48.260Z,11.70
2018-07-04T08:42:21.530Z,10.37
2018-07-04T08:44:54.749Z,10.10
2018-07-04T08:47:27.927Z,11.30
2018-07-04T08:50:01.119Z,9.93
2018-07-04T08:52:34.182Z,10.83
2018-07-04T08:55:07.207Z,11.13
2018-07-04T08:57:40.377Z,11.40
2018-07-04T09:00:13.883Z,11.40
2018-07-04T09:02:47.176Z,9.80
2018-07-04T09:05:20.470Z,9.83
2018-07-04T09:07:53.664Z,13.50
2018-07-04T09:10:26.959Z,15.97
2018-07-04T09:13:00.156Z,9.20
2018-07-04T09:15:33.239Z,11.03
2018-07-04T09:18:06.343Z,11.43
2018-07-04T09:20:39.529Z,11.53
2018-07-04T09:23:12.634Z,17.83
2018-07-04T09:25:45.800Z,8.90
2018-07-04T09:28:18.996Z,15.87
2018-07-04T09:30:52.581Z,10.77
2018-07-04T09:33:25.815Z,10.60
2018-07-04T09:35:59.285Z,14.83
2018-07-04T09:38:32.391Z,8.50
2018-07-04T09:41:05.675Z,11.33
2018-07-04T09:43:38.963Z,10.40
2018-07-04T09:46:12.234Z,10.13
2018-07-04T09:48:45.440Z,7.67
2018-07-04T09:51:18.538Z,9.43
2018-07-04T09:53:51.591Z,12.43
2018-07-04T09:56:24.772Z,9.70
2018-07-04T09:58:58.040Z,7.77
2018-07-04T10:01:31.319Z,8.07
2018-07-04T10:04:04.613Z,8.50
2018-07-04T10:06:37.853Z,7.20
2018-07-04T10:09:11.005Z,6.77
2018-07-04T10:11:44.280Z,6.50
2018-07-04T10:14:17.397Z,12.83
2018-07-04T10:16:50.642Z,6.27
2018-07-04T10:19:23.871Z,6.03
2018-07-04T10:21:57.176Z,10.47
2018-07-04T10:24:30.470Z,7.00
2018-07-04T10:27:03.765Z,8.50
2018-07-04T10:29:37.034Z,8.37
2018-07-04T10:32:10.225Z,8.90
2018-07-04T10:34:43.530Z,5.90
2018-07-04T10:37:16.544Z,7.63
2018-07-04T10:39:49.797Z,6.60
2018-07-04T10:42:23.220Z,9.40
2018-07-04T10:44:56.501Z,5.57
2018-07-04T10:47:29.695Z,6.77
2018-07-04T10:50:02.907Z,7.23
2018-07-04T10:52:36.198Z,5.87
2018-07-04T10:55:09.449Z,7.97
2018-07-04T10:57:42.808Z,6.00
2018-07-04T11:00:16.062Z,13.50
2018-07-04T11:02:49.063Z,5.20
2018-07-04T11:05:22.256Z,4.50
2018-07-04T11:07:55.653Z,5.20
2018-07-04T11:10:28.934Z,6.87
2018-07-04T11:13:01.924Z,8.53
2018-07-04T11:15:35.118Z,7.93
2018-07-04T11:18:08.216Z,4.80
2018-07-04T11:20:41.486Z,5.63
2018-07-04T11:23:14.710Z,9.07
2018-07-04T11:25:47.907Z,8.40
2018-07-04T11:28:21.249Z,5.63
2018-07-04T11:30:54.498Z,10.17
2018-07-04T11:33:27.704Z,5.20
2018-07-04T11:36:01.271Z,5.80
2018-07-04T11:38:34.456Z,7.83
2018-07-04T11:41:07.778Z,10.83
2018-07-04T11:43:41.002Z,4.90
2018-07-04T11:46:09.001Z,14.90
2018-07-04T11:48:35.976Z,6.10
2018-07-04T11:51:03.004Z,4.80
2018-07-04T11:53:29.968Z,4.40
2018-07-04T11:55:57.004Z,5.20
2018-07-04T11:58:24.081Z,4.40
2018-07-04T12:00:51.113Z,4.50
2018-07-04T12:03:20.208Z,4.43
2018-07-04T12:05:53.328Z,4.50
2018-07-04T12:08:20.436Z,4.53
2018-07-04T12:10:47.805Z,6.60
2018-07-04T12:13:14.972Z,6.87
2018-07-04T12:15:41.996Z,7.43
2018-07-04T12:18:08.963Z,10.23
2018-07-04T12:20:35.984Z,4.00
2018-07-04T12:23:03.012Z,5.10
2018-07-04T12:25:29.965Z,4.20
2018-07-04T12:27:57.003Z,5.00
2018-07-04T12:30:23.973Z,4.00
2018-07-04T12:32:50.997Z,4.40
2018-07-04T12:35:17.952Z,7.37
2018-07-04T12:37:45.131Z,4.30
2018-07-04T12:40:12.052Z,3.90
2018-07-04T12:42:39.002Z,5.03
2018-07-04T12:45:05.972Z,4.90
2018-07-04T12:47:32.894Z,5.03
2018-07-04T12:49:59.931Z,4.37
2018-07-04T12:52:26.989Z,4.40
2018-07-04T12:55:00.274Z,4.33
2018-07-04T12:57:33.560Z,7.27
2018-07-04T13:00:06.772Z,10.60
2018-07-04T13:02:39.946Z,4.57
2018-07-04T13:05:12.961Z,6.63
2018-07-04T13:07:45.943Z,18.97
2018-07-04T13:10:19.266Z,6.10
2018-07-04T13:12:52.441Z,4.27
2018-07-04T13:15:25.396Z,15.73
2018-07-04T13:17:58.597Z,19.83
2018-07-04T13:20:31.902Z,11.40
2018-07-04T13:23:04.987Z,7.17
2018-07-04T13:25:37.929Z,7.40
2018-07-04T13:28:11.088Z,4.93
2018-07-04T13:30:44.350Z,6.33
2018-07-04T13:33:17.448Z,4.80
2018-07-04T13:35:50.682Z,6.43
2018-07-04T13:38:24.039Z,13.33
2018-07-04T13:40:57.226Z,5.93
2018-07-04T13:43:30.337Z,4.60
2018-07-04T13:46:03.442Z,4.13
2018-07-04T13:48:36.691Z,3.60
2018-07-04T13:51:09.893Z,4.93
2018-07-04T13:53:42.981Z,4.53
2018-07-04T13:56:16.085Z,6.53
2018-07-04T13:58:49.267Z,5.60
2018-07-04T14:01:22.280Z,3.37
2018-07-04T14:03:55.429Z,8.27
2018-07-04T14:06:28.652Z,7.13
2018-07-04T14:09:01.925Z,6.17
2018-07-04T14:11:34.916Z,8.10
2018-07-04T14:14:07.825Z,3.87
2018-07-04T14:16:41.024Z,4.30
2018-07-04T14:19:14.027Z,5.07
2018-07-04T14:21:47.207Z,5.20
2018-07-04T14:24:20.371Z,8.30
2018-07-04T14:26:53.565Z,5.63
2018-07-04T14:29:26.648Z,4.60
2018-07-04T14:31:59.845Z,5.63
2018-07-04T14:34:33.029Z,4.73
2018-07-04T14:37:05.964Z,4.70
2018-07-04T14:39:39.020Z,4.60
2018-07-04T14:42:12.065Z,6.23
2018-07-04T14:44:45.080Z,5.50
2018-07-04T14:47:18.388Z,5.60
2018-07-04T14:49:51.463Z,5.70
2018-07-04T14:52:24.423Z,4.23
2018-07-04T14:54:57.603Z,3.53
2018-07-04T14:57:31.035Z,11.83
2018-07-04T15:00:04.277Z,9.43
2018-07-04T15:02:37.542Z,6.43
2018-07-04T15:05:10.717Z,4.90
2018-07-04T15:07:43.716Z,4.60
2018-07-04T15:10:16.896Z,4.13
2018-07-04T15:12:50.011Z,4.23
2018-07-04T15:15:22.977Z,6.87
2018-07-04T15:17:56.063Z,17.13
2018-07-04T15:20:29.981Z,4.53
2018-07-04T15:23:03.023Z,6.47
2018-07-04T15:25:36.178Z,4.03
2018-07-04T15:28:09.568Z,3.53
2018-07-04T15:30:42.781Z,3.90
2018-07-04T15:33:15.975Z,4.67
2018-07-04T15:35:49.173Z,9.27
2018-07-04T15:38:22.534Z,5.20
2018-07-04T15:40:55.479Z,6.17
2018-07-04T15:43:28.716Z,4.73
2018-07-04T15:46:02.013Z,3.87
2018-07-04T15:48:35.216Z,4.97
2018-07-04T15:51:08.405Z,5.67
2018-07-04T15:53:41.576Z,7.43
2018-07-04T15:56:14.875Z,4.23
2018-07-04T15:58:48.080Z,3.50
2018-07-04T16:01:21.364Z,4.60
2018-07-04T16:03:54.445Z,5.43
2018-07-04T16:06:27.663Z,4.00
2018-07-04T16:09:01.093Z,6.10
2018-07-04T16:11:34.262Z,3.80
2018-07-04T16:14:07.192Z,7.00
2018-07-04T16:16:40.341Z,9.30
2018-07-04T16:19:13.607Z,4.60
2018-07-04T16:21:46.824Z,5.70
2018-07-04T16:24:19.984Z,4.90
2018-07-04T16:26:53.126Z,5.03
2018-07-04T16:29:26.356Z,5.30
2018-07-04T16:31:59.473Z,8.27
2018-07-04T16:34:32.653Z,6.20
2018-07-04T16:37:05.864Z,5.67
2018-07-04T16:39:39.150Z,6.30
2018-07-04T16:42:12.568Z,5.37
2018-07-04T16:44:45.943Z,5.83
2018-07-04T16:47:19.016Z,9.53
2018-07-04T16:49:52.244Z,6.47
2018-07-04T16:52:25.616Z,8.90
2018-07-04T16:54:58.738Z,5.67
2018-07-04T16:57:31.733Z,5.90
2018-07-04T17:00:04.748Z,5.37
2018-07-04T17:02:37.915Z,5.70
2018-07-04T17:05:11.120Z,6.77
2018-07-04T17:07:44.373Z,7.17
2018-07-04T17:10:17.481Z,5.60
2018-07-04T17:12:50.732Z,5.90
2018-07-04T17:15:23.954Z,6.70
2018-07-04T17:17:57.245Z,7.30
2018-07-04T17:20:30.536Z,6.77
2018-07-04T17:23:03.821Z,5.97
2018-07-04T17:25:37.037Z,6.03
2018-07-04T17:28:10.240Z,7.50
2018-07-04T17:30:43.409Z,6.97
2018-07-04T17:33:16.392Z,7.70
2018-07-04T17:35:49.473Z,7.30
2018-07-04T17:38:22.557Z,7.50
2018-07-04T17:40:55.777Z,6.80
2018-07-04T17:43:29.080Z,7.97
2018-07-04T17:46:03.349Z,7.50
2018-07-04T17:48:36.466Z,9.27
2018-07-04T17:51:09.621Z,11.00
2018-07-04T17:53:42.741Z,7.97
2018-07-04T17:56:15.777Z,7.47
2018-07-04T17:58:48.916Z,8.03
2018-07-04T18:01:21.958Z,7.10
2018-07-04T18:03:55.220Z,8.27
2018-07-04T18:06:28.437Z,10.43
2018-07-04T18:09:01.686Z,8.00
2018-07-04T18:11:35.877Z,7.60
2018-07-04T18:17:10.889Z,7.80
2018-07-04T18:20:05.997Z,11.83
2018-07-04T18:22:39.206Z,8.30
2018-07-04T18:25:12.445Z,8.47
2018-07-04T18:27:45.761Z,8.60
2018-07-04T18:30:18.935Z,9.30
2018-07-04T18:32:52.044Z,9.10
2018-07-04T18:35:25.230Z,9.50
2018-07-04T18:37:58.524Z,10.27
2018-07-04T18:40:31.750Z,15.17
2018-07-04T18:43:04.928Z,17.20
2018-07-04T18:45:38.336Z,15.93
2018-07-04T18:48:11.536Z,13.67
2018-07-04T18:50:44.773Z,12.20
2018-07-04T18:53:18.017Z,11.17
2018-07-04T18:55:51.319Z,10.90
2018-07-04T18:58:24.573Z,9.47
2018-07-04T19:00:57.888Z,9.07
2018-07-04T19:03:31.183Z,10.07
2018-07-04T19:06:04.561Z,9.00
2018-07-04T19:08:37.740Z,9.13
2018-07-04T19:11:10.763Z,9.93
2018-07-04T19:13:43.960Z,9.10
2018-07-04T19:16:17.173Z,9.73
2018-07-04T19:18:50.467Z,9.20
2018-07-04T19:21:23.609Z,9.43
2018-07-04T19:23:58.639Z,10.43
2018-07-04T19:26:31.912Z,9.67
2018-07-04T19:29:05.181Z,9.70
2018-07-04T19:31:38.450Z,10.60
2018-07-04T19:34:11.658Z,10.77
2018-07-04T19:36:44.671Z,9.30
2018-07-04T19:39:17.806Z,10.40
2018-07-04T19:41:51.219Z,9.23
2018-07-04T19:44:24.329Z,9.95
2018-07-04T19:46:57.603Z,10.27
2018-07-04T19:49:30.735Z,10.17
2018-07-04T19:52:04.008Z,10.20
2018-07-04T19:54:37.282Z,9.80
2018-07-04T19:57:10.621Z,12.93
2018-07-04T19:59:43.930Z,10.87
2018-07-04T20:02:17.168Z,10.70
2018-07-04T20:04:50.467Z,11.93
2018-07-04T20:07:23.827Z,11.47
2018-07-04T20:09:57.050Z,11.30
2018-07-04T20:12:30.353Z,12.20
2018-07-04T20:15:03.638Z,11.47
2018-07-04T20:17:36.694Z,10.20
2018-07-04T20:20:09.938Z,11.90
2018-07-04T20:22:43.292Z,10.83
2018-07-04T20:25:16.810Z,10.70
2018-07-04T20:27:49.858Z,12.07
2018-07-04T20:30:22.978Z,11.20
2018-07-04T20:32:56.017Z,12.83
2018-07-04T20:35:29.396Z,13.07
2018-07-04T20:38:02.627Z,12.57
2018-07-04T20:40:35.976Z,11.77
2018-07-04T20:43:08.964Z,11.70
2018-07-04T20:45:42.095Z,12.67
2018-07-04T20:48:15.452Z,11.70
2018-07-04T20:50:48.667Z,11.33
2018-07-04T20:53:22.024Z,11.40
2018-07-04T20:55:55.442Z,13.30
2018-07-04T20:58:28.631Z,10.47
2018-07-04T21:01:01.934Z,10.10
2018-07-04T21:03:35.221Z,11.23
2018-07-04T21:06:08.838Z,11.00
2018-07-04T21:08:42.008Z,10.43
2018-07-04T21:11:16.834Z,11.20
2018-07-04T21:13:50.144Z,13.73
2018-07-04T21:16:23.509Z,11.33
2018-07-04T21:18:56.622Z,10.80
2018-07-04T21:21:29.868Z,9.90
2018-07-04T21:24:03.134Z,9.73
2018-07-04T21:26:36.324Z,10.50
2018-07-04T21:29:09.488Z,9.97
2018-07-04T21:31:42.579Z,9.40
2018-07-04T21:34:15.825Z,9.90
2018-07-04T21:36:48.999Z,17.70
2018-07-04T21:39:22.258Z,10.10
2018-07-04T21:41:55.554Z,9.57
2018-07-04T21:44:28.845Z,10.00
2018-07-04T21:47:02.152Z,10.23
2018-07-04T21:49:35.660Z,10.47
2018-07-04T21:52:08.937Z,9.83
2018-07-04T21:54:42.022Z,12.27
2018-07-04T21:57:15.157Z,10.63
2018-07-04T21:59:48.443Z,11.73
2018-07-04T22:02:21.666Z,10.50
2018-07-04T22:04:54.861Z,9.67
2018-07-04T22:07:27.956Z,10.10
2018-07-04T22:10:01.017Z,11.47
2018-07-04T22:12:34.089Z,11.07
2018-07-04T22:15:07.235Z,10.60
2018-07-04T22:17:40.560Z,10.13
2018-07-04T22:20:13.723Z,10.17
2018-07-04T22:22:46.919Z,12.17
2018-07-04T22:25:20.456Z,9.73
2018-07-04T22:27:53.488Z,10.43
2018-07-04T22:30:26.604Z,11.17
2018-07-04T22:32:59.901Z,11.43
2018-07-04T22:35:33.103Z,10.53
2018-07-04T22:38:06.473Z,10.10
2018-07-04T22:40:39.782Z,11.50
2018-07-04T22:43:12.871Z,10.47
2018-07-04T22:45:46.061Z,10.47
2018-07-04T22:48:19.250Z,10.07
2018-07-04T22:50:52.533Z,10.07
2018-07-04T22:53:25.771Z,9.80
2018-07-04T22:55:59.334Z,10.47
2018-07-04T22:58:32.531Z,9.43
2018-07-04T23:01:05.918Z,11.37
2018-07-04T23:03:39.136Z,11.17
2018-07-04T23:06:12.143Z,10.50
2018-07-04T23:08:45.308Z,10.40
2018-07-04T23:11:18.585Z,10.10
2018-07-04T23:13:51.858Z,9.80
2018-07-04T23:16:24.875Z,9.67
2018-07-04T23:18:58.192Z,10.67
2018-07-04T23:21:31.449Z,9.60
2018-07-04T23:24:04.717Z,10.80
2018-07-04T23:26:37.967Z,11.37
2018-07-04T23:29:11.157Z,10.60
2018-07-04T23:31:44.254Z,10.97
2018-07-04T23:34:17.542Z,11.70
2018-07-04T23:36:50.918Z,10.97
2018-07-04T23:39:24.258Z,11.50
2018-07-04T23:41:57.601Z,10.33
2018-07-04T23:44:30.878Z,10.13
2018-07-04T23:47:03.860Z,10.70
2018-07-04T23:49:39.746Z,11.03
2018-07-04T23:52:12.968Z,11.00
2018-07-04T23:54:46.244Z,11.77
2018-07-04T23:57:19.544Z,11.33
2018-07-04T23:59:52.733Z,12.13
